Time;durP1;ratioP1;P1;durP2;ratioP2;P2;SDS_P1;SDS_P2;PMS_P1;PMS_P2;Temp;Humidity;BMP_temperature;BMP_pressure;BME280_temperature;BME280_humidity;BME280_pressure;Samples;Min_cycle;Max_cycle;Signal;HPM_P1;HPM_P2
2022/01/28 00:00:05;;;;;;;8.70;7.27;;;;;;;;;;5065752;28;20206;-81
2022/01/28 00:02:48;;;;;;;9.07;7.27;;;;;;;;;;5056195;28;20233;-80
2022/01/28 00:05:19;;;;;;;9.90;7.63;;;;;;;;;;5044269;28;20210;-80
2022/01/28 00:07:46;;;;;;;10.10;7.70;;;;;;;;;;5060545;28;20672;-80
2022/01/28 00:10:15;;;;;;;11.40;8.03;;;;;;;;;;5064799;28;20229;-80
2022/01/28 00:13:02;;;;;;;12.95;8.85;;;;;;;;;;5043422;28;20243;-79
2022/01/28 00:15:34;;;;;;;14.27;9.43;;;;;;;;;;5047561;28;20406;-79
2022/01/28 00:21:07;;;;;;;12.23;9.17;;;;;;;;;;5057054;28;20190;-82
2022/01/28 00:37:49;;;;;;;10.57;8.77;;;;;;;;;;5039397;28;20325;-79
2022/01/28 00:40:14;;;;;;;11.43;8.30;;;;;;;;;;5037197;28;20267;-79
2022/01/28 00:42:43;;;;;;;10.83;9.27;;;;;;;;;;5056354;28;20238;-80
2022/01/28 00:45:10;;;;;;;9.23;6.73;;;;;;;;;;5061719;28;20213;-81
2022/01/28 00:47:37;;;;;;;13.20;8.23;;;;;;;;;;5045833;28;20691;-80
2022/01/28 00:50:05;;;;;;;11.37;8.70;;;;;;;;;;5053209;28;20195;-81
2022/01/28 00:52:32;;;;;;;10.83;8.43;;;;;;;;;;5047518;28;20249;-80
2022/01/28 00:55:00;;;;;;;11.30;8.33;;;;;;;;;;5056847;28;20234;-80
2022/01/28 00:57:27;;;;;;;11.53;8.33;;;;;;;;;;5045647;28;20234;-80
2022/01/28 00:59:55;;;;;;;10.07;7.60;;;;;;;;;;5038246;28;20206;-80
2022/01/28 01:02:22;;;;;;;8.47;7.33;;;;;;;;;;5050540;28;20234;-80
2022/01/28 01:04:49;;;;;;;11.30;9.20;;;;;;;;;;5060817;28;20207;-80
2022/01/28 01:07:16;;;;;;;9.43;7.00;;;;;;;;;;5060047;28;20252;-80
2022/01/28 01:09:45;;;;;;;13.57;8.63;;;;;;;;;;5040692;28;20206;-79
2022/01/28 01:12:17;;;;;;;13.67;9.03;;;;;;;;;;5051950;28;20241;-80
2022/01/28 01:14:45;;;;;;;12.57;9.07;;;;;;;;;;5061819;28;20302;-80
2022/01/28 01:17:26;;;;;;;11.07;8.40;;;;;;;;;;5058922;28;20236;-80
2022/01/28 01:20:04;;;;;;;12.00;8.77;;;;;;;;;;5040666;28;20202;-80
2022/01/28 01:22:37;;;;;;;12.70;8.80;;;;;;;;;;5052218;28;20299;-81
2022/01/28 01:25:14;;;;;;;11.43;8.00;;;;;;;;;;5045306;28;20678;-79
2022/01/28 01:27:41;;;;;;;11.57;7.87;;;;;;;;;;5046055;28;20244;-80
2022/01/28 01:30:08;;;;;;;7.90;6.93;;;;;;;;;;5059893;28;20206;-78
2022/01/28 01:32:37;;;;;;;12.63;7.07;;;;;;;;;;5044616;28;20242;-81
2022/01/28 01:35:04;;;;;;;11.87;7.20;;;;;;;;;;5039954;28;20226;-80
2022/01/28 01:37:31;;;;;;;10.40;8.13;;;;;;;;;;5037418;28;20245;-78
2022/01/28 01:39:58;;;;;;;11.67;8.43;;;;;;;;;;5049968;28;20786;-79
2022/01/28 01:42:33;;;;;;;12.40;8.37;;;;;;;;;;5039999;28;20246;-80
2022/01/28 01:53:35;;;;;;;14.33;8.30;;;;;;;;;;5043132;28;20315;-80
2022/01/28 01:56:02;;;;;;;13.00;6.80;;;;;;;;;;5037517;28;20210;-78
2022/01/28 01:58:31;;;;;;;8.63;7.43;;;;;;;;;;5045508;28;20708;-79
2022/01/28 02:00:59;;;;;;;13.20;7.90;;;;;;;;;;5039785;28;20212;-81
2022/01/28 02:03:28;;;;;;;9.10;7.47;;;;;;;;;;5020425;28;20237;-79
2022/01/28 02:05:58;;;;;;;13.50;6.87;;;;;;;;;;5046006;28;20201;-78
2022/01/28 02:08:26;;;;;;;11.07;8.30;;;;;;;;;;5049892;28;20241;-79
2022/01/28 02:10:56;;;;;;;12.00;7.87;;;;;;;;;;5041647;28;20194;-80
2022/01/28 02:13:23;;;;;;;9.90;7.53;;;;;;;;;;5053158;28;20776;-79
2022/01/28 02:15:50;;;;;;;10.37;8.40;;;;;;;;;;5042159;28;20210;-79
2022/01/28 02:18:17;;;;;;;10.97;8.27;;;;;;;;;;5040324;28;20231;-80
2022/01/28 02:20:49;;;;;;;11.90;8.67;;;;;;;;;;5042624;28;20210;-80
2022/01/28 02:23:16;;;;;;;16.10;8.13;;;;;;;;;;5057052;28;20232;-79
2022/01/28 02:25:44;;;;;;;13.53;7.83;;;;;;;;;;5057572;28;20202;-81
2022/01/28 02:28:13;;;;;;;13.03;9.33;;;;;;;;;;5056470;28;20233;-79
2022/01/28 02:30:41;;;;;;;11.80;8.60;;;;;;;;;;5058975;28;20754;-79
2022/01/28 02:33:12;;;;;;;10.83;7.80;;;;;;;;;;5057260;28;20268;-80
2022/01/28 02:35:41;;;;;;;12.63;8.67;;;;;;;;;;5057531;28;20217;-79
2022/01/28 02:38:09;;;;;;;11.50;8.63;;;;;;;;;;5054454;28;20734;-79
2022/01/28 02:40:37;;;;;;;12.60;8.30;;;;;;;;;;5046955;28;20206;-79
2022/01/28 02:43:18;;;;;;;11.53;8.57;;;;;;;;;;5057080;28;20239;-80
2022/01/28 02:45:46;;;;;;;13.33;8.20;;;;;;;;;;5061917;28;20680;-80
2022/01/28 02:48:18;;;;;;;13.37;9.30;;;;;;;;;;5061785;28;20233;-79
2022/01/28 02:50:53;;;;;;;11.23;8.90;;;;;;;;;;5059731;28;20201;-79
2022/01/28 02:53:25;;;;;;;14.27;9.93;;;;;;;;;;5062399;28;20268;-80
2022/01/28 02:55:58;;;;;;;15.37;9.53;;;;;;;;;;5047444;28;20203;-80
2022/01/28 02:58:26;;;;;;;16.87;10.00;;;;;;;;;;5039309;28;20234;-79
2022/01/28 03:00:54;;;;;;;12.83;9.17;;;;;;;;;;5040227;28;20198;-79
2022/01/28 03:03:23;;;;;;;11.87;8.83;;;;;;;;;;5040620;28;20231;-79
2022/01/28 03:05:50;;;;;;;13.47;9.03;;;;;;;;;;5040382;28;20225;-79
2022/01/28 03:08:17;;;;;;;12.90;9.80;;;;;;;;;;5046287;28;20235;-79
2022/01/28 03:11:09;;;;;;;13.63;9.83;;;;;;;;;;5060153;28;20273;-79
2022/01/28 03:13:58;;;;;;;12.93;9.20;;;;;;;;;;5048433;28;20241;-80
2022/01/28 03:16:27;;;;;;;12.47;9.03;;;;;;;;;;5053894;28;20207;-80
2022/01/28 03:18:57;;;;;;;14.17;8.47;;;;;;;;;;5041638;28;20674;-80
2022/01/28 03:21:43;;;;;;;16.23;8.97;;;;;;;;;;5040107;28;20206;-79
2022/01/28 03:24:12;;;;;;;12.83;7.93;;;;;;;;;;5053249;28;20623;-79
2022/01/28 03:26:40;;;;;;;7.33;6.20;;;;;;;;;;5050931;28;20261;-79
2022/01/28 03:29:07;;;;;;;5.13;4.30;;;;;;;;;;5052243;28;20213;-80
2022/01/28 03:31:37;;;;;;;5.57;4.40;;;;;;;;;;5057659;28;20221;-79
2022/01/28 03:34:04;;;;;;;5.47;4.30;;;;;;;;;;5059020;28;20320;-79
2022/01/28 03:36:31;;;;;;;5.87;3.67;;;;;;;;;;5044363;28;20206;-80
2022/01/28 03:38:58;;;;;;;4.07;3.67;;;;;;;;;;5054928;28;20198;-79
2022/01/28 03:41:25;;;;;;;3.47;3.13;;;;;;;;;;5042492;28;20210;-80
2022/01/28 03:43:58;;;;;;;4.17;3.00;;;;;;;;;;5058735;28;20209;-78
2022/01/28 03:46:25;;;;;;;3.07;2.87;;;;;;;;;;5057648;28;20570;-79
2022/01/28 03:48:52;;;;;;;3.70;2.80;;;;;;;;;;5059956;28;20222;-78
2022/01/28 03:51:19;;;;;;;3.93;3.57;;;;;;;;;;5056277;28;20686;-80
2022/01/28 03:53:46;;;;;;;3.70;3.40;;;;;;;;;;5057500;28;20245;-80
2022/01/28 03:56:13;;;;;;;5.47;4.07;;;;;;;;;;5058983;28;20862;-78
2022/01/28 03:58:40;;;;;;;4.57;3.80;;;;;;;;;;5057852;28;20230;-78
2022/01/28 04:01:15;;;;;;;7.67;4.30;;;;;;;;;;5044120;28;20202;-79
2022/01/28 04:03:48;;;;;;;5.90;4.90;;;;;;;;;;5037800;28;20222;-81
2022/01/28 04:11:49;;;;;;;5.07;4.57;;;;;;;;;;5048995;28;20294;-79
2022/01/28 04:14:24;;;;;;;7.47;5.23;;;;;;;;;;5052134;28;20230;-80
2022/01/28 04:19:37;;;;;;;9.73;5.90;;;;;;;;;;5039207;28;20677;-80
2022/01/28 04:22:05;;;;;;;15.77;6.17;;;;;;;;;;5051869;28;20691;-81
2022/01/28 04:24:32;;;;;;;8.73;6.47;;;;;;;;;;5050674;28;20205;-79
2022/01/28 04:26:59;;;;;;;12.27;6.33;;;;;;;;;;5038151;28;20230;-79
2022/01/28 04:29:26;;;;;;;7.00;5.60;;;;;;;;;;5039613;28;20206;-79
2022/01/28 04:31:55;;;;;;;15.03;6.33;;;;;;;;;;5024329;28;20602;-79
2022/01/28 04:34:23;;;;;;;12.33;6.00;;;;;;;;;;5037899;28;20226;-79
2022/01/28 04:36:59;;;;;;;11.87;5.73;;;;;;;;;;5038212;28;20234;-78
2022/01/28 04:39:33;;;;;;;13.60;5.73;;;;;;;;;;5038596;28;20191;-80
2022/01/28 04:42:09;;;;;;;8.43;6.10;;;;;;;;;;5037162;28;20314;-79
2022/01/28 04:44:45;;;;;;;8.10;5.53;;;;;;;;;;5038600;28;20214;-79
2022/01/28 04:47:19;;;;;;;8.70;5.40;;;;;;;;;;5024569;28;20238;-79
2022/01/28 04:49:57;;;;;;;12.30;5.37;;;;;;;;;;5017788;28;20222;-79
2022/01/28 04:52:46;;;;;;;12.17;5.00;;;;;;;;;;5016036;28;20249;-79
2022/01/28 04:55:26;;;;;;;10.77;4.70;;;;;;;;;;5018091;28;20615;-79
2022/01/28 04:58:06;;;;;;;8.07;4.97;;;;;;;;;;5017761;28;20317;-79
2022/01/28 05:00:44;;;;;;;11.93;5.17;;;;;;;;;;5030900;28;20203;-80
2022/01/28 05:03:32;;;;;;;11.97;5.30;;;;;;;;;;5051935;28;20261;-79
2022/01/28 05:06:26;;;;;;;10.47;4.80;;;;;;;;;;5051785;28;20210;-79
2022/01/28 05:12:20;;;;;;;13.70;5.23;;;;;;;;;;5003558;28;20289;-81
2022/01/28 05:25:51;;;;;;;13.60;4.77;;;;;;;;;;5034513;28;20233;-80
2022/01/28 05:28:22;;;;;;;11.90;5.00;;;;;;;;;;5035946;28;20284;-79
2022/01/28 05:30:49;;;;;;;6.60;4.43;;;;;;;;;;5037104;28;20191;-81
2022/01/28 05:33:16;;;;;;;12.57;5.70;;;;;;;;;;5038056;28;20234;-80
2022/01/28 05:35:44;;;;;;;8.77;4.63;;;;;;;;;;5026749;28;20242;-80
2022/01/28 05:38:11;;;;;;;8.70;4.77;;;;;;;;;;5028704;28;20229;-79
2022/01/28 05:40:38;;;;;;;15.17;5.13;;;;;;;;;;5036034;28;20203;-79
2022/01/28 05:43:05;;;;;;;13.73;4.63;;;;;;;;;;5035158;28;20246;-79
2022/01/28 05:45:32;;;;;;;9.60;4.93;;;;;;;;;;5036973;28;20210;-79
2022/01/28 05:48:00;;;;;;;14.67;4.63;;;;;;;;;;5035495;28;20237;-79
2022/01/28 05:50:27;;;;;;;8.10;4.67;;;;;;;;;;5034016;28;20302;-80
2022/01/28 05:52:55;;;;;;;7.50;4.50;;;;;;;;;;5034960;28;20242;-79
2022/01/28 05:55:22;;;;;;;19.07;4.90;;;;;;;;;;5042061;28;20219;-81
2022/01/28 05:57:49;;;;;;;5.03;3.47;;;;;;;;;;5041490;28;20238;-81
2022/01/28 06:00:17;;;;;;;9.20;3.80;;;;;;;;;;5042041;28;20211;-82
2022/01/28 06:02:45;;;;;;;6.90;3.90;;;;;;;;;;5037142;28;20235;-81
2022/01/28 06:05:12;;;;;;;6.83;4.23;;;;;;;;;;5027573;28;20215;-81
2022/01/28 06:07:41;;;;;;;12.97;3.97;;;;;;;;;;5034261;28;20230;-83
2022/01/28 06:10:10;;;;;;;13.37;3.93;;;;;;;;;;5047841;28;20268;-83
2022/01/28 06:12:41;;;;;;;14.83;4.23;;;;;;;;;;5055532;28;20238;-84
2022/01/28 06:15:09;;;;;;;5.60;3.27;;;;;;;;;;5056323;28;20261;-82
2022/01/28 06:17:36;;;;;;;7.90;4.00;;;;;;;;;;5052028;28;20309;-83
2022/01/28 06:20:04;;;;;;;9.90;3.63;;;;;;;;;;5042544;28;20693;-82
2022/01/28 06:22:31;;;;;;;8.53;3.73;;;;;;;;;;5039865;28;20618;-83
2022/01/28 06:24:58;;;;;;;12.27;4.07;;;;;;;;;;5040679;28;20206;-82
2022/01/28 06:27:27;;;;;;;10.30;4.43;;;;;;;;;;5041230;28;20230;-82
2022/01/28 06:29:54;;;;;;;8.77;3.93;;;;;;;;;;5043435;28;20206;-82
2022/01/28 06:32:21;;;;;;;6.23;3.43;;;;;;;;;;5041474;28;20265;-82
2022/01/28 06:34:48;;;;;;;8.67;3.90;;;;;;;;;;5041685;28;20222;-82
2022/01/28 06:37:15;;;;;;;15.17;3.90;;;;;;;;;;5025816;28;20227;-81
2022/01/28 06:39:42;;;;;;;19.30;4.40;;;;;;;;;;5033348;28;20226;-82
2022/01/28 06:42:09;;;;;;;9.13;4.03;;;;;;;;;;5040143;28;20614;-82
2022/01/28 06:44:38;;;;;;;14.27;4.43;;;;;;;;;;5044904;28;20218;-83
2022/01/28 06:47:05;;;;;;;15.07;4.60;;;;;;;;;;5043734;28;20314;-82
2022/01/28 06:49:32;;;;;;;10.27;4.60;;;;;;;;;;5042834;28;20207;-82
2022/01/28 06:51:59;;;;;;;9.93;4.60;;;;;;;;;;5039927;28;20238;-83
2022/01/28 06:54:26;;;;;;;11.33;5.30;;;;;;;;;;5041622;28;20346;-83
2022/01/28 06:56:53;;;;;;;6.00;4.53;;;;;;;;;;5040095;28;20238;-83
2022/01/28 06:59:28;;;;;;;13.67;4.97;;;;;;;;;;5025473;28;20203;-83
2022/01/28 07:01:57;;;;;;;11.07;5.57;;;;;;;;;;5044254;28;20241;-82
2022/01/28 07:04:24;;;;;;;12.03;4.83;;;;;;;;;;5038840;28;20212;-82
2022/01/28 07:06:51;;;;;;;10.30;5.27;;;;;;;;;;5037765;28;20242;-81
2022/01/28 07:09:18;;;;;;;8.53;5.23;;;;;;;;;;5027850;28;20211;-81
2022/01/28 07:11:46;;;;;;;8.57;4.07;;;;;;;;;;5034510;28;20246;-82
2022/01/28 07:14:13;;;;;;;6.90;4.07;;;;;;;;;;5033615;28;20210;-82
2022/01/28 07:16:40;;;;;;;9.50;4.80;;;;;;;;;;5029924;28;20234;-83
2022/01/28 07:19:09;;;;;;;7.97;4.60;;;;;;;;;;5023685;28;20207;-82
2022/01/28 07:21:36;;;;;;;9.07;4.20;;;;;;;;;;5023077;28;20746;-83
2022/01/28 07:24:04;;;;;;;9.90;4.17;;;;;;;;;;5022339;28;20505;-80
2022/01/28 07:26:31;;;;;;;8.67;4.03;;;;;;;;;;5020903;28;20207;-80
2022/01/28 07:28:58;;;;;;;10.17;4.87;;;;;;;;;;5020078;28;20211;-81
2022/01/28 07:31:25;;;;;;;10.63;4.10;;;;;;;;;;5020929;28;20211;-80
2022/01/28 07:33:52;;;;;;;12.13;4.17;;;;;;;;;;5023855;28;20231;-81
2022/01/28 07:36:21;;;;;;;10.00;4.63;;;;;;;;;;5020627;28;20587;-81
2022/01/28 07:38:48;;;;;;;8.67;4.53;;;;;;;;;;5020686;28;20234;-80
2022/01/28 07:41:15;;;;;;;10.57;4.50;;;;;;;;;;5022604;28;20206;-81
2022/01/28 07:43:42;;;;;;;7.27;3.87;;;;;;;;;;5042689;28;20241;-80
2022/01/28 07:46:09;;;;;;;9.83;4.83;;;;;;;;;;5040972;28;20210;-81
2022/01/28 07:48:36;;;;;;;12.10;4.00;;;;;;;;;;5089828;23;20237;-81
2022/01/28 07:51:03;;;;;;;10.07;4.87;;;;;;;;;;5080025;28;20197;-81
2022/01/28 07:53:32;;;;;;;7.13;4.63;;;;;;;;;;5081213;28;20760;-81
2022/01/28 07:55:59;;;;;;;11.73;4.27;;;;;;;;;;5081850;28;20205;-81
2022/01/28 07:58:26;;;;;;;8.27;4.40;;;;;;;;;;5092972;28;20233;-81
2022/01/28 08:00:53;;;;;;;11.33;4.70;;;;;;;;;;5093773;28;20216;-81
2022/01/28 08:03:20;;;;;;;11.80;5.07;;;;;;;;;;5092046;28;20233;-82
2022/01/28 08:05:47;;;;;;;9.60;4.73;;;;;;;;;;5083578;28;20594;-81
2022/01/28 08:08:18;;;;;;;12.37;4.03;;;;;;;;;;5076898;28;20325;-81
2022/01/28 08:10:47;;;;;;;9.93;4.20;;;;;;;;;;5083648;28;20209;-81
2022/01/28 08:13:14;;;;;;;9.63;4.70;;;;;;;;;;5083558;28;20244;-82
2022/01/28 08:15:41;;;;;;;6.77;4.90;;;;;;;;;;5083339;28;20222;-81
2022/01/28 08:18:08;;;;;;;8.63;5.80;;;;;;;;;;5082000;28;20236;-81
2022/01/28 08:20:35;;;;;;;11.43;4.97;;;;;;;;;;5082749;28;20216;-81
2022/01/28 08:23:03;;;;;;;11.00;4.33;;;;;;;;;;5081777;28;20241;-81
2022/01/28 08:25:32;;;;;;;7.47;3.83;;;;;;;;;;5081862;28;20209;-81
2022/01/28 08:28:01;;;;;;;11.57;4.57;;;;;;;;;;5081958;28;20268;-81
2022/01/28 08:30:29;;;;;;;12.03;3.97;;;;;;;;;;5081303;28;20200;-81
2022/01/28 08:32:57;;;;;;;8.03;3.00;;;;;;;;;;5078736;28;20240;-82
2022/01/28 08:35:29;;;;;;;13.93;3.87;;;;;;;;;;5081577;28;20216;-81
2022/01/28 08:37:57;;;;;;;7.20;3.27;;;;;;;;;;5081407;28;20240;-81
2022/01/28 08:40:24;;;;;;;8.10;3.67;;;;;;;;;;5082570;28;20668;-81
2022/01/28 08:42:52;;;;;;;7.13;4.20;;;;;;;;;;5073446;28;20233;-81
2022/01/28 08:45:20;;;;;;;9.67;3.67;;;;;;;;;;5074268;28;20210;-81
2022/01/28 08:47:47;;;;;;;6.23;3.20;;;;;;;;;;5081332;28;20265;-81
2022/01/28 08:50:14;;;;;;;14.60;3.97;;;;;;;;;;5081723;28;20205;-82
2022/01/28 08:52:46;;;;;;;5.40;3.13;;;;;;;;;;5081099;28;20234;-81
2022/01/28 08:55:13;;;;;;;8.13;4.00;;;;;;;;;;5082256;28;20199;-82
2022/01/28 08:57:43;;;;;;;11.97;3.57;;;;;;;;;;5079477;28;20233;-81
2022/01/28 09:00:11;;;;;;;6.27;3.30;;;;;;;;;;5079335;28;20213;-82
2022/01/28 09:02:39;;;;;;;9.83;3.07;;;;;;;;;;5078841;28;20233;-82
2022/01/28 09:05:06;;;;;;;6.50;3.13;;;;;;;;;;5081017;28;20190;-82
2022/01/28 09:07:34;;;;;;;6.17;3.43;;;;;;;;;;5079223;28;20741;-82
2022/01/28 09:10:06;;;;;;;12.33;3.30;;;;;;;;;;5078954;28;20723;-82
2022/01/28 09:12:39;;;;;;;7.40;3.60;;;;;;;;;;5079960;28;20344;-82
2022/01/28 09:15:07;;;;;;;9.93;4.47;;;;;;;;;;5080774;28;20205;-82
2022/01/28 09:17:34;;;;;;;11.53;3.73;;;;;;;;;;5079729;28;20238;-82
2022/01/28 09:20:03;;;;;;;12.67;4.00;;;;;;;;;;5079309;28;20189;-82
2022/01/28 09:22:30;;;;;;;14.30;3.90;;;;;;;;;;5079124;28;20244;-82
2022/01/28 09:24:57;;;;;;;9.50;4.63;;;;;;;;;;5074881;28;20282;-82
2022/01/28 09:27:25;;;;;;;13.20;4.10;;;;;;;;;;5059663;28;20239;-82
2022/01/28 09:29:52;;;;;;;10.40;3.40;;;;;;;;;;5061555;28;20213;-82
2022/01/28 09:32:19;;;;;;;7.23;3.77;;;;;;;;;;5060448;28;20253;-82
2022/01/28 09:34:46;;;;;;;9.20;3.30;;;;;;;;;;5059996;28;20219;-82
2022/01/28 09:37:14;;;;;;;10.40;3.33;;;;;;;;;;5058698;28;20248;-82
2022/01/28 09:39:44;;;;;;;7.60;3.73;;;;;;;;;;5062115;28;20206;-83
2022/01/28 09:42:14;;;;;;;10.63;3.07;;;;;;;;;;5068100;28;20227;-82
2022/01/28 09:44:42;;;;;;;8.07;3.80;;;;;;;;;;5071414;28;20196;-82
2022/01/28 09:47:10;;;;;;;11.37;4.73;;;;;;;;;;5081398;28;20230;-82
2022/01/28 09:49:39;;;;;;;8.93;3.80;;;;;;;;;;5084316;28;20210;-82
2022/01/28 09:52:07;;;;;;;12.87;3.67;;;;;;;;;;5082013;28;20280;-82
2022/01/28 09:54:35;;;;;;;9.63;3.77;;;;;;;;;;5088765;28;20262;-81
2022/01/28 09:57:03;;;;;;;9.20;4.10;;;;;;;;;;5090571;28;20239;-81
2022/01/28 09:59:31;;;;;;;9.77;4.43;;;;;;;;;;5102899;28;20203;-81
2022/01/28 10:01:58;;;;;;;4.73;3.13;;;;;;;;;;5094040;28;20228;-81
2022/01/28 10:04:25;;;;;;;5.30;4.13;;;;;;;;;;5079857;28;20221;-81
2022/01/28 10:06:54;;;;;;;9.80;4.40;;;;;;;;;;5090466;28;20293;-81
2022/01/28 10:09:23;;;;;;;10.30;4.67;;;;;;;;;;5081399;28;20200;-81
2022/01/28 10:11:55;;;;;;;12.80;4.23;;;;;;;;;;5080178;28;20259;-82
2022/01/28 10:14:25;;;;;;;11.23;4.27;;;;;;;;;;5077959;28;20472;-82
2022/01/28 10:16:57;;;;;;;5.80;3.20;;;;;;;;;;5077304;28;20236;-83
2022/01/28 10:19:25;;;;;;;9.00;4.10;;;;;;;;;;5075974;28;20265;-82
2022/01/28 10:21:52;;;;;;;6.50;4.53;;;;;;;;;;5081452;28;20254;-82
2022/01/28 10:24:21;;;;;;;8.30;3.90;;;;;;;;;;5082489;28;20193;-82
2022/01/28 10:26:48;;;;;;;12.87;4.57;;;;;;;;;;5080875;28;20356;-82
2022/01/28 10:29:17;;;;;;;12.43;4.77;;;;;;;;;;5081969;28;20204;-82
2022/01/28 10:31:47;;;;;;;9.13;4.83;;;;;;;;;;5081259;28;20204;-82
2022/01/28 10:34:19;;;;;;;7.07;3.50;;;;;;;;;;5082320;28;20219;-82
2022/01/28 10:36:47;;;;;;;8.40;4.10;;;;;;;;;;5083406;28;21449;-81
2022/01/28 10:39:15;;;;;;;9.10;4.40;;;;;;;;;;5086333;28;20825;-81
2022/01/28 10:41:49;;;;;;;8.70;3.80;;;;;;;;;;5082879;28;20209;-83
2022/01/28 10:44:17;;;;;;;13.17;3.83;;;;;;;;;;5083363;28;20200;-82
2022/01/28 10:46:51;;;;;;;7.03;3.53;;;;;;;;;;5081836;28;20202;-82
2022/01/28 10:49:18;;;;;;;8.37;3.73;;;;;;;;;;5082401;28;20206;-82
2022/01/28 10:51:47;;;;;;;9.57;3.60;;;;;;;;;;5082484;28;20264;-82
2022/01/28 10:54:14;;;;;;;3.50;2.70;;;;;;;;;;5081911;28;20213;-82
2022/01/28 10:56:49;;;;;;;7.73;3.00;;;;;;;;;;5081059;28;20224;-83
2022/01/28 10:59:19;;;;;;;4.77;3.30;;;;;;;;;;5080182;28;20209;-83
2022/01/28 11:01:46;;;;;;;5.90;2.57;;;;;;;;;;5077187;28;20248;-83
2022/01/28 11:04:14;;;;;;;6.93;3.20;;;;;;;;;;5079669;28;20209;-82
2022/01/28 11:06:42;;;;;;;6.33;3.33;;;;;;;;;;5085614;28;20206;-81
2022/01/28 11:09:10;;;;;;;10.43;3.63;;;;;;;;;;5085379;28;20197;-81
2022/01/28 11:11:38;;;;;;;5.37;2.63;;;;;;;;;;5085444;28;20212;-82
2022/01/28 11:14:06;;;;;;;13.13;4.27;;;;;;;;;;5086148;28;20209;-82
2022/01/28 11:16:35;;;;;;;5.93;2.87;;;;;;;;;;5083614;28;20278;-82
2022/01/28 11:19:02;;;;;;;7.97;3.33;;;;;;;;;;5084831;28;20201;-82
2022/01/28 11:21:34;;;;;;;9.10;4.03;;;;;;;;;;5085208;28;20205;-81
2022/01/28 11:24:04;;;;;;;7.83;3.90;;;;;;;;;;5086074;28;20196;-81
2022/01/28 11:26:35;;;;;;;7.83;3.50;;;;;;;;;;5086855;28;20186;-81
2022/01/28 11:29:10;;;;;;;6.87;3.50;;;;;;;;;;5086830;28;20186;-82
2022/01/28 11:31:46;;;;;;;5.77;3.90;;;;;;;;;;5087839;28;20189;-82
2022/01/28 11:34:17;;;;;;;6.53;3.40;;;;;;;;;;5086171;28;20201;-82
2022/01/28 11:36:44;;;;;;;4.03;2.80;;;;;;;;;;5084964;28;20229;-82
2022/01/28 11:39:21;;;;;;;9.00;3.33;;;;;;;;;;5084870;28;20217;-82
2022/01/28 11:42:01;;;;;;;8.83;2.97;;;;;;;;;;5081813;28;20236;-82
2022/01/28 11:44:40;;;;;;;7.63;2.90;;;;;;;;;;5080243;28;20243;-82
2022/01/28 11:47:09;;;;;;;6.57;3.00;;;;;;;;;;5080780;28;20255;-83
2022/01/28 11:49:52;;;;;;;4.63;3.03;;;;;;;;;;5081039;28;20186;-82
2022/01/28 11:52:22;;;;;;;9.57;4.17;;;;;;;;;;5079957;28;20590;-82
2022/01/28 11:54:50;;;;;;;5.80;3.10;;;;;;;;;;5086920;28;20231;-82
2022/01/28 11:57:17;;;;;;;7.87;2.90;;;;;;;;;;5081949;28;20307;-83
2022/01/28 11:59:46;;;;;;;6.80;3.47;;;;;;;;;;5080968;28;20210;-83
2022/01/28 12:02:16;;;;;;;6.67;3.73;;;;;;;;;;5080467;28;20257;-83
2022/01/28 12:04:44;;;;;;;6.67;3.40;;;;;;;;;;5080225;28;20206;-82
2022/01/28 12:07:14;;;;;;;6.60;2.70;;;;;;;;;;5077747;28;20233;-82
2022/01/28 12:09:44;;;;;;;4.93;2.67;;;;;;;;;;5080670;28;20248;-83
2022/01/28 12:12:13;;;;;;;7.00;3.07;;;;;;;;;;5078612;28;20229;-82
2022/01/28 12:15:09;;;;;;;13.93;4.50;;;;;;;;;;5078803;28;20319;-83
2022/01/28 12:17:41;;;;;;;10.07;3.00;;;;;;;;;;5079406;28;20328;-84
2022/01/28 12:20:12;;;;;;;5.30;2.73;;;;;;;;;;5080676;28;20197;-83
2022/01/28 12:22:54;;;;;;;10.13;3.43;;;;;;;;;;5080085;28;20610;-83
2022/01/28 12:25:36;;;;;;;5.50;2.97;;;;;;;;;;5079437;28;20212;-84
2022/01/28 12:28:12;;;;;;;8.73;2.80;;;;;;;;;;5077326;28;20240;-84
2022/01/28 12:30:39;;;;;;;5.50;2.37;;;;;;;;;;5078079;28;20600;-85
2022/01/28 12:33:08;;;;;;;10.57;3.80;;;;;;;;;;5077405;28;20624;-84
2022/01/28 12:35:35;;;;;;;9.53;2.97;;;;;;;;;;5077692;28;20323;-84
2022/01/28 12:38:03;;;;;;;8.07;3.50;;;;;;;;;;5075785;28;20241;-84
2022/01/28 12:40:36;;;;;;;5.10;2.67;;;;;;;;;;5075542;28;20205;-84
2022/01/28 12:43:03;;;;;;;10.30;3.33;;;;;;;;;;5074665;28;20229;-84
2022/01/28 12:45:30;;;;;;;13.43;2.90;;;;;;;;;;5076650;28;20209;-84
2022/01/28 12:47:57;;;;;;;5.97;2.87;;;;;;;;;;5075911;28;20240;-84
2022/01/28 12:50:28;;;;;;;7.30;2.83;;;;;;;;;;5077539;28;20213;-84
2022/01/28 12:52:55;;;;;;;10.63;2.77;;;;;;;;;;5076797;28;20248;-83
2022/01/28 12:55:22;;;;;;;5.83;2.60;;;;;;;;;;5078357;28;20235;-83
2022/01/28 12:57:49;;;;;;;7.37;3.13;;;;;;;;;;5079337;28;20228;-84
2022/01/28 13:00:17;;;;;;;8.90;2.57;;;;;;;;;;5080270;28;20228;-83
2022/01/28 13:02:50;;;;;;;9.17;3.53;;;;;;;;;;5080410;28;20237;-82
2022/01/28 13:05:33;;;;;;;7.07;3.10;;;;;;;;;;5076331;28;20205;-82
2022/01/28 13:10:46;;;;;;;9.07;3.00;;;;;;;;;;5073937;28;20232;-84
2022/01/28 13:13:15;;;;;;;8.17;2.63;;;;;;;;;;5072943;28;20244;-84
2022/01/28 13:15:42;;;;;;;12.43;2.90;;;;;;;;;;5073211;28;20213;-85
2022/01/28 13:18:09;;;;;;;6.00;2.73;;;;;;;;;;5072584;28;20232;-86
2022/01/28 13:20:38;;;;;;;5.37;2.67;;;;;;;;;;5072883;28;20204;-85
2022/01/28 13:23:07;;;;;;;11.13;3.07;;;;;;;;;;5072095;28;20605;-85
2022/01/28 13:25:34;;;;;;;14.47;3.00;;;;;;;;;;5072870;28;20262;-85
2022/01/28 13:28:04;;;;;;;11.07;3.00;;;;;;;;;;5071878;28;20236;-86
2022/01/28 13:30:35;;;;;;;8.03;3.10;;;;;;;;;;5072893;28;20236;-85
2022/01/28 13:33:03;;;;;;;8.80;3.43;;;;;;;;;;5072050;28;20241;-86
2022/01/28 13:35:32;;;;;;;10.40;3.37;;;;;;;;;;5072258;28;20587;-86
2022/01/28 13:38:03;;;;;;;7.97;3.30;;;;;;;;;;5072099;28;20581;-86
2022/01/28 13:40:33;;;;;;;8.70;3.17;;;;;;;;;;5074634;28;20247;-83
2022/01/28 13:43:02;;;;;;;9.10;2.93;;;;;;;;;;5073101;28;20237;-84
2022/01/28 13:45:30;;;;;;;9.60;2.77;;;;;;;;;;5074168;28;20552;-85
2022/01/28 13:47:58;;;;;;;11.00;3.20;;;;;;;;;;5073559;28;20225;-85
2022/01/28 13:50:31;;;;;;;3.90;2.37;;;;;;;;;;5073689;28;20592;-84
2022/01/28 13:53:19;;;;;;;8.47;3.23;;;;;;;;;;5073159;28;20236;-85
2022/01/28 13:55:48;;;;;;;12.77;2.60;;;;;;;;;;5075319;28;20581;-84
2022/01/28 13:58:15;;;;;;;12.87;2.87;;;;;;;;;;5074112;28;20735;-85
2022/01/28 14:00:44;;;;;;;11.00;2.77;;;;;;;;;;5080494;28;20205;-83
2022/01/28 14:03:17;;;;;;;7.53;2.77;;;;;;;;;;5076102;28;20717;-85
2022/01/28 14:05:55;;;;;;;7.50;3.00;;;;;;;;;;5076718;28;20695;-82
2022/01/28 14:08:37;;;;;;;10.43;3.13;;;;;;;;;;5080428;28;20241;-83
2022/01/28 14:11:20;;;;;;;10.40;3.10;;;;;;;;;;5075807;28;20231;-83
2022/01/28 14:14:02;;;;;;;7.27;2.30;;;;;;;;;;5074743;28;20233;-83
2022/01/28 14:16:29;;;;;;;10.17;2.70;;;;;;;;;;5074661;28;20189;-83
2022/01/28 14:18:56;;;;;;;9.07;3.13;;;;;;;;;;5074791;28;20233;-83
2022/01/28 14:21:23;;;;;;;12.53;3.07;;;;;;;;;;5074063;28;20197;-84
2022/01/28 14:23:51;;;;;;;8.47;3.00;;;;;;;;;;5075958;28;20236;-83
2022/01/28 14:26:20;;;;;;;9.97;3.20;;;;;;;;;;5074922;28;20213;-86
2022/01/28 14:29:20;;;;;;;10.57;4.00;;;;;;;;;;5073729;28;20312;-86
2022/01/28 14:31:46;;;;;;;14.23;3.03;;;;;;;;;;5073140;28;20323;-86
2022/01/28 14:34:13;;;;;;;15.10;3.13;;;;;;;;;;5073907;28;20213;-86
2022/01/28 14:36:40;;;;;;;11.93;3.47;;;;;;;;;;5073647;28;20209;-84
2022/01/28 14:39:08;;;;;;;5.87;2.47;;;;;;;;;;5076968;28;20225;-84
2022/01/28 14:41:36;;;;;;;6.23;2.90;;;;;;;;;;5081982;28;20259;-82
2022/01/28 14:44:04;;;;;;;12.73;2.90;;;;;;;;;;5081694;28;20239;-84
2022/01/28 14:46:31;;;;;;;8.30;2.60;;;;;;;;;;5079911;28;20228;-84
2022/01/28 14:49:00;;;;;;;8.83;2.67;;;;;;;;;;5080646;28;20266;-83
2022/01/28 14:51:28;;;;;;;8.00;2.30;;;;;;;;;;5078650;28;20783;-85
2022/01/28 14:53:55;;;;;;;7.67;2.57;;;;;;;;;;5078664;28;20292;-84
2022/01/28 14:56:22;;;;;;;7.50;2.30;;;;;;;;;;5078530;28;20669;-84
2022/01/28 14:58:51;;;;;;;5.63;2.37;;;;;;;;;;5077763;28;20245;-84
2022/01/28 15:01:19;;;;;;;7.67;2.60;;;;;;;;;;5077720;28;20612;-84
2022/01/28 15:03:46;;;;;;;6.10;3.47;;;;;;;;;;5078106;28;20260;-83
2022/01/28 15:06:14;;;;;;;9.90;2.67;;;;;;;;;;5078638;28;20206;-84
2022/01/28 15:08:43;;;;;;;7.70;2.93;;;;;;;;;;5077398;28;20237;-84
2022/01/28 15:11:15;;;;;;;8.00;3.07;;;;;;;;;;5078291;28;20234;-85
2022/01/28 15:13:42;;;;;;;7.20;2.70;;;;;;;;;;5077525;28;20236;-84
2022/01/28 15:16:10;;;;;;;9.23;3.23;;;;;;;;;;5077668;28;20209;-84
2022/01/28 15:18:37;;;;;;;6.90;2.77;;;;;;;;;;5077826;28;20229;-84
2022/01/28 15:21:04;;;;;;;12.87;4.00;;;;;;;;;;5074700;22;20713;-86
2022/01/28 15:23:32;;;;;;;6.87;2.40;;;;;;;;;;5061617;28;20229;-84
2022/01/28 15:26:00;;;;;;;5.90;2.10;;;;;;;;;;5075397;28;20216;-85
2022/01/28 15:28:36;;;;;;;5.97;2.50;;;;;;;;;;5075499;28;20229;-85
2022/01/28 15:36:34;;;;;;;6.70;2.67;;;;;;;;;;5074448;28;20292;-86
2022/01/28 15:39:01;;;;;;;8.43;2.60;;;;;;;;;;5065886;28;20234;-85
2022/01/28 15:41:29;;;;;;;8.50;2.70;;;;;;;;;;5054910;28;20233;-85
2022/01/28 15:43:56;;;;;;;8.03;2.80;;;;;;;;;;5055280;28;20202;-85
2022/01/28 15:46:23;;;;;;;12.60;2.83;;;;;;;;;;5055818;28;20190;-85
2022/01/28 15:48:51;;;;;;;6.53;2.77;;;;;;;;;;5056638;28;20264;-84